Sea Lion Island, Falkland Islands

3:24 AM FKST on July 06, 2015 (GMT -0300)
Mount Pleasant | | Change Station
CLOSE
Current Station
Airport
Location: Mount Pleasant,
Elevation: 243 ft
Nearby Weather Stations

Elev 243 ft 51.82 °S, 58.45 °W | Updated 1 hour ago

Mostly Cloudy
Mostly Cloudy
34 °F
Feels Like 19 °F
N
33
Wind Variable Wind from ESE
Gusts 46 mph

Today
High -- | Low -- °F
--% Chance of Precip.
Yesterday
High -- | Low -- °F
Precip. -- in
9:05 AM 4:56 PM
Waning Gibbous, 78% visible
Pressure 29.33 in
Visibility 6.2 miles
Clouds Scattered Clouds 900 ft
Mostly Cloudy 2300 ft
Mostly Cloudy 3800 ft
Windchill 19 °F
Dew Point 30 °F
Humidity 87%
Rainfall 0.00 in
Snow Depth Not available.
UV 0 out of 12
Pollen Not available.
Air Quality Not available.
Flu Activity Not available.
METAR EGYP 060450Z 12029G40KT 9999 SCT009 BKN023 BKN038 01/M01 Q0993 GRN

More Conditions Fewer Conditions

Pressure 29.33 in
Visibility 6.2 miles
Clouds Scattered Clouds 900 ft
Mostly Cloudy 2300 ft
Mostly Cloudy 3800 ft
Windchill 19 °F
Dew Point 30 °F
Humidity 87%
Rainfall 0.00 in
Snow Depth Not available.
UV 0 out of 12
Pollen Not available.
Air Quality Not available.
Flu Activity Not available.
METAR EGYP 060450Z 12029G40KT 9999 SCT009 BKN023 BKN038 01/M01 Q0993 GRN

More Conditions Fewer Conditions

10-Day Weather Forecast

×

Almanac

Astronomy

Jul. 06, 2015 Rise Set
Actual Time
Civil Twilight
Nautical Twilight
Astronomical Twilight
Moon
Length of Visible Light
Length of Day
Tomorrow will be .
, % of the Moon is Illuminated

Today's Extremes

Country Highs Country Lows

Community

WunderPhotos

Upload Photos

1,835,502 photos uploaded!

WunderBlogs® & News

Nearby

Air Quality

  Air Quality AQ Index Pollutant
Not available.

Snow Depth

Station Depth Elevation

Earthquake Activity

City Distance Mag. Time & Date
Minimum magnitude displayed is 2.5.

Coastal Water Temperatures

Place Temperature

Stations

Nearby Weather Stations

Station Location Temp. Windchill Dew Point Humidity Wind Precip. Elev Updated Type